createdAt,value
2022-09-10T00:01:39.070Z,100693.88
2022-09-10T00:04:09.887Z,100692.84
2022-09-10T00:06:36.149Z,100704.38
2022-09-10T00:09:02.410Z,100696.19
2022-09-10T00:11:30.419Z,100702.19
2022-09-10T00:13:56.682Z,100688.63
2022-09-10T00:16:23.163Z,100686.59
2022-09-10T00:18:49.474Z,100686.59
2022-09-10T00:21:17.339Z,100689.88
2022-09-10T00:23:43.809Z,100691.53
2022-09-10T00:26:10.966Z,100689.50
2022-09-10T00:28:38.644Z,100685.00
2022-09-10T00:31:05.084Z,100689.31
2022-09-10T00:33:31.411Z,100689.16
2022-09-10T00:35:57.704Z,100687.94
2022-09-10T00:38:24.041Z,100683.41
2022-09-10T00:40:50.302Z,100682.38
2022-09-10T00:43:17.410Z,100682.19
2022-09-10T00:45:47.002Z,100673.97
2022-09-10T00:48:14.611Z,100677.28
2022-09-10T00:50:43.169Z,100680.81
2022-09-10T00:53:11.355Z,100682.28
2022-09-10T00:55:39.347Z,100683.94
2022-09-10T00:58:06.734Z,100683.53
2022-09-10T01:00:33.519Z,100684.56
2022-09-10T01:03:02.446Z,100683.53
2022-09-10T01:05:28.888Z,100686.84
2022-09-10T01:07:55.550Z,100684.19
2022-09-10T01:10:24.698Z,100681.50
2022-09-10T01:13:03.591Z,100682.34
2022-09-10T01:15:35.361Z,100691.00
2022-09-10T01:18:08.221Z,100685.66
2022-09-10T01:20:57.918Z,100681.97
2022-09-10T01:23:38.211Z,100678.47
2022-09-10T01:26:11.971Z,100684.44
2022-09-10T01:28:41.248Z,100680.75
2022-09-10T01:31:10.813Z,100682.41
2022-09-10T01:33:40.575Z,100676.25
2022-09-10T01:36:09.507Z,100683.44
2022-09-10T01:38:37.021Z,100693.97
2022-09-10T01:41:03.302Z,100691.91
2022-09-10T01:43:29.838Z,100691.06
2022-09-10T01:46:04.474Z,100689.84
2022-09-10T01:48:40.939Z,100685.34
2022-09-10T01:51:11.867Z,100689.66
2022-09-10T01:53:44.724Z,100684.13
2022-09-10T01:56:17.847Z,100691.97
2022-09-10T01:58:45.135Z,100686.63
2022-09-10T02:01:15.687Z,100678.41
2022-09-10T02:03:44.068Z,100681.69
2022-09-10T02:06:13.063Z,100678.00
2022-09-10T02:08:40.909Z,100675.50
2022-09-10T02:11:10.406Z,100674.50
2022-09-10T02:13:36.703Z,100673.28
2022-09-10T02:16:05.540Z,100677.81
2022-09-10T02:18:33.404Z,100678.81
2022-09-10T02:21:00.396Z,100669.97
2022-09-10T02:23:28.691Z,100671.19
2022-09-10T02:25:54.979Z,100671.38
2022-09-10T02:28:21.252Z,100670.56
2022-09-10T02:30:47.535Z,100665.22
2022-09-10T02:33:13.814Z,100661.69
2022-09-10T02:35:41.423Z,100659.22
2022-09-10T02:38:07.712Z,100665.41
2022-09-10T02:40:34.219Z,100664.38
2022-09-10T02:43:00.495Z,100666.22
2022-09-10T02:45:26.817Z,100669.72
2022-09-10T02:47:53.132Z,100674.25
2022-09-10T02:50:19.422Z,100673.44
2022-09-10T02:52:47.035Z,100671.56
2022-09-10T02:55:13.563Z,100677.94
2022-09-10T02:57:40.228Z,100675.47
2022-09-10T03:00:07.532Z,100671.31
2022-09-10T03:02:33.841Z,100670.06
2022-09-10T03:05:00.135Z,100671.06
2022-09-10T03:07:26.418Z,100676.59
2022-09-10T03:09:54.002Z,100669.59
2022-09-10T03:12:20.262Z,100673.09
2022-09-10T03:14:46.519Z,100674.13
2022-09-10T03:17:12.836Z,100675.78
2022-09-10T03:19:39.110Z,100671.44
2022-09-10T03:22:05.672Z,100674.31
2022-09-10T03:24:31.953Z,100680.50
2022-09-10T03:26:59.611Z,100676.34
2022-09-10T03:29:25.888Z,100676.34
2022-09-10T03:31:52.222Z,100674.50
2022-09-10T03:34:18.727Z,100678.19
2022-09-10T03:36:45.664Z,100682.69
2022-09-10T03:39:12.015Z,100674.91
2022-09-10T03:41:38.283Z,100673.84
2022-09-10T03:44:05.961Z,100671.16
2022-09-10T03:46:32.252Z,100670.38
2022-09-10T03:48:58.779Z,100663.16
2022-09-10T03:51:25.058Z,100670.16
2022-09-10T03:53:51.342Z,100670.16
2022-09-10T03:56:17.612Z,100666.66
2022-09-10T03:58:43.862Z,100672.00
2022-09-10T04:01:11.480Z,100669.13
2022-09-10T04:03:37.775Z,100667.28
2022-09-10T04:06:04.085Z,100673.47
2022-09-10T04:08:30.377Z,100664.63
2022-09-10T04:11:01.243Z,100665.63
2022-09-10T04:13:27.503Z,100668.31
2022-09-10T04:15:53.771Z,100667.47
2022-09-10T04:18:21.402Z,100663.78
2022-09-10T04:20:47.747Z,100663.78
2022-09-10T04:23:14.923Z,100661.13
2022-09-10T04:25:41.200Z,100655.75
2022-09-10T04:28:07.457Z,100662.78
2022-09-10T04:30:33.738Z,100658.44
2022-09-10T04:32:59.994Z,100664.63
2022-09-10T04:35:27.644Z,100656.78
2022-09-10T04:37:53.898Z,100649.75
2022-09-10T04:40:20.174Z,100659.66
2022-09-10T04:42:46.463Z,100658.84
2022-09-10T04:45:12.747Z,100660.69
2022-09-10T04:47:39.039Z,100663.38
2022-09-10T04:50:05.788Z,100662.53
2022-09-10T04:52:33.451Z,100664.38
2022-09-10T04:54:59.732Z,100659.03
2022-09-10T04:57:25.998Z,100661.69
2022-09-10T04:59:52.284Z,100664.38
2022-09-10T05:02:18.585Z,100666.22
2022-09-10T05:04:44.890Z,100664.56
2022-09-10T05:07:11.286Z,100672.59
2022-09-10T05:09:38.873Z,100669.09
2022-09-10T05:12:05.414Z,100668.06
2022-09-10T05:14:31.666Z,100671.56
2022-09-10T05:16:57.923Z,100668.91
2022-09-10T05:19:24.195Z,100674.06
2022-09-10T05:21:50.473Z,100673.22
2022-09-10T05:24:16.859Z,100670.56
2022-09-10T05:26:44.647Z,100667.88
2022-09-10T05:29:10.937Z,100664.19
2022-09-10T05:31:37.239Z,100666.88
2022-09-10T05:34:03.647Z,100663.16
2022-09-10T05:36:30.303Z,100663.78
2022-09-10T05:38:57.777Z,100672.66
2022-09-10T05:41:24.075Z,100673.47
2022-09-10T05:43:51.699Z,100676.16
2022-09-10T05:46:17.969Z,100674.13
2022-09-10T05:48:44.418Z,100678.47
2022-09-10T05:51:11.039Z,100675.78
2022-09-10T05:53:37.355Z,100676.41
2022-09-10T05:56:03.822Z,100676.03
2022-09-10T05:58:30.111Z,100689.03
2022-09-10T06:00:57.731Z,100687.81
2022-09-10T06:03:24.049Z,100688.28
2022-09-10T06:05:50.762Z,100681.91
2022-09-10T06:08:17.215Z,100683.75
2022-09-10T06:10:43.486Z,100682.75
2022-09-10T06:13:09.755Z,100687.03
2022-09-10T06:15:36.042Z,100693.44
2022-09-10T06:18:03.740Z,100688.72
2022-09-10T06:20:30.020Z,100686.84
2022-09-10T06:22:56.282Z,100692.22
2022-09-10T06:25:22.540Z,100694.88
2022-09-10T06:27:48.799Z,100693.03
2022-09-10T06:30:15.062Z,100694.50
2022-09-10T06:32:41.347Z,100691.84
2022-09-10T06:35:09.518Z,100700.34
2022-09-10T06:37:35.774Z,100688.41
2022-09-10T06:40:02.325Z,100694.41
2022-09-10T06:42:28.678Z,100697.72
2022-09-10T06:44:54.973Z,100698.56
2022-09-10T06:50:09.108Z,100703.72
2022-09-10T06:52:35.370Z,100698.56
2022-09-10T06:55:01.630Z,100708.44
2022-09-10T06:57:27.886Z,100699.75
2022-09-10T06:59:54.150Z,100705.94
2022-09-10T07:02:20.482Z,100693.38
2022-09-10T07:04:46.782Z,100705.75
2022-09-10T07:07:14.383Z,100703.09
2022-09-10T07:09:40.630Z,100707.03
2022-09-10T07:12:07.061Z,100706.03
2022-09-10T07:14:33.322Z,100704.19
2022-09-10T07:16:59.586Z,100705.00
2022-09-10T07:19:25.863Z,100702.34
2022-09-10T07:21:52.117Z,100708.31
2022-09-10T07:24:19.776Z,100707.28
2022-09-10T07:26:46.033Z,100706.25
2022-09-10T07:29:12.299Z,100713.09
2022-09-10T07:31:38.658Z,100712.91
2022-09-10T07:34:04.926Z,100715.38
2022-09-10T07:36:31.209Z,100712.53
2022-09-10T07:38:57.865Z,100707.16
2022-09-10T07:41:25.483Z,100712.72
2022-09-10T07:43:53.079Z,100714.16
2022-09-10T07:46:20.105Z,100713.13
2022-09-10T07:48:46.582Z,100717.47
2022-09-10T07:51:12.846Z,100712.75
2022-09-10T07:53:42.156Z,100719.97
2022-09-10T07:56:16.207Z,100717.94
2022-09-10T07:58:43.821Z,100708.88
2022-09-10T08:01:10.869Z,100716.91
2022-09-10T08:03:37.492Z,100721.25
2022-09-10T08:06:04.474Z,100723.75
2022-09-10T08:08:31.290Z,100723.75
2022-09-10T08:11:03.638Z,100729.50
2022-09-10T08:13:30.086Z,100725.00
2022-09-10T08:15:57.758Z,100732.00
2022-09-10T08:18:24.110Z,100730.34
2022-09-10T08:20:53.314Z,100731.00
2022-09-10T08:23:19.566Z,100739.28
2022-09-10T08:25:49.062Z,100736.19
2022-09-10T08:28:15.334Z,100745.13
2022-09-10T08:30:41.658Z,100746.38
2022-09-10T08:33:09.286Z,100742.50
2022-09-10T08:35:35.540Z,100754.69
2022-09-10T08:38:01.831Z,100758.59
2022-09-10T08:40:28.147Z,100760.28
2022-09-10T08:42:54.655Z,100757.81
2022-09-10T08:45:23.200Z,100752.44
2022-09-10T08:47:53.339Z,100753.88
2022-09-10T08:50:26.954Z,100763.59
2022-09-10T08:52:56.991Z,100767.34
2022-09-10T08:55:25.104Z,100768.59
2022-09-10T08:57:54.070Z,100775.44
2022-09-10T09:00:21.114Z,100770.34
2022-09-10T09:02:51.828Z,100776.13
2022-09-10T09:05:19.144Z,100785.63
2022-09-10T09:07:47.599Z,100792.25
2022-09-10T09:10:16.855Z,100789.16
2022-09-10T09:12:48.090Z,100792.28
2022-09-10T09:15:19.054Z,100788.78
2022-09-10T09:17:54.987Z,100795.44
2022-09-10T09:20:26.128Z,100795.25
2022-09-10T09:22:54.367Z,100790.50
2022-09-10T09:25:22.383Z,100791.78
2022-09-10T09:27:51.334Z,100792.84
2022-09-10T09:30:19.119Z,100792.25
2022-09-10T09:32:46.286Z,100791.66
2022-09-10T09:35:19.354Z,100791.28
2022-09-10T09:37:45.946Z,100796.66
2022-09-10T09:40:16.550Z,100793.97
2022-09-10T09:42:46.852Z,100798.91
2022-09-10T09:45:21.096Z,100796.66
2022-09-10T09:47:47.590Z,100799.72
2022-09-10T09:50:14.071Z,100802.41
2022-09-10T09:52:41.097Z,100805.31
2022-09-10T09:55:14.893Z,100809.06
2022-09-10T09:57:43.361Z,100800.66
2022-09-10T10:00:31.469Z,100805.06
2022-09-10T10:03:03.134Z,100801.38
2022-09-10T10:05:29.438Z,100806.78
2022-09-10T10:07:55.720Z,100808.25
2022-09-10T10:10:23.063Z,100807.00
2022-09-10T10:12:51.129Z,100800.78
2022-09-10T10:15:33.717Z,100796.66
2022-09-10T10:18:00.034Z,100802.25
2022-09-10T10:20:35.777Z,100808.63
2022-09-10T10:23:22.059Z,100805.13
2022-09-10T10:25:49.731Z,100803.91
2022-09-10T10:28:20.745Z,100809.72
2022-09-10T10:30:51.050Z,100805.19
2022-09-10T10:33:18.866Z,100804.41
2022-09-10T10:35:48.902Z,100802.34
2022-09-10T10:38:27.958Z,100808.38
2022-09-10T10:41:01.378Z,100808.97
2022-09-10T10:43:33.100Z,100812.91
2022-09-10T10:46:00.192Z,100809.59
2022-09-10T10:48:33.790Z,100806.69
2022-09-10T10:51:04.919Z,100812.50
2022-09-10T10:53:40.613Z,100822.63
2022-09-10T10:56:12.670Z,100836.69
2022-09-10T10:58:50.141Z,100820.97
2022-09-10T11:01:21.191Z,100815.19
2022-09-10T11:03:53.170Z,100822.22
2022-09-10T11:06:20.667Z,100813.75
2022-09-10T11:08:49.599Z,100816.44
2022-09-10T11:11:19.978Z,100816.44
2022-09-10T11:13:51.147Z,100818.94
2022-09-10T11:16:19.150Z,100809.22
2022-09-10T11:18:48.370Z,100810.25
2022-09-10T11:21:18.569Z,100814.38
2022-09-10T11:23:47.139Z,100813.56
2022-09-10T11:26:17.287Z,100802.81
2022-09-10T11:28:54.668Z,100810.88
2022-09-10T11:31:28.271Z,100812.97
2022-09-10T11:33:57.904Z,100817.06
2022-09-10T11:36:28.155Z,100815.00
2022-09-10T11:39:00.750Z,100816.06
2022-09-10T11:41:29.691Z,100813.16
2022-09-10T11:44:02.050Z,100815.00
2022-09-10T11:46:31.359Z,100805.06
2022-09-10T11:49:00.442Z,100804.41
2022-09-10T11:51:29.781Z,100809.34
2022-09-10T11:53:56.222Z,100812.78
2022-09-10T11:56:27.248Z,100805.09
2022-09-10T11:58:56.627Z,100800.91
2022-09-10T12:01:32.530Z,100802.16
2022-09-10T12:04:16.354Z,100811.31
2022-09-10T12:06:52.916Z,100815.25
2022-09-10T12:09:24.573Z,100814.88
2022-09-10T12:11:56.153Z,100814.31
2022-09-10T12:14:22.540Z,100806.25
2022-09-10T12:16:51.973Z,100813.13
2022-09-10T12:19:22.586Z,100809.41
2022-09-10T12:21:49.778Z,100809.81
2022-09-10T12:24:24.194Z,100806.31
2022-09-10T12:26:50.454Z,100817.69
2022-09-10T12:29:27.633Z,100811.50
2022-09-10T12:32:12.455Z,100827.63
2022-09-10T12:34:40.652Z,100832.19
2022-09-10T12:37:17.550Z,100830.94
2022-09-10T12:39:43.861Z,100831.56
2022-09-10T12:42:33.032Z,100836.97
2022-09-10T12:44:59.581Z,100841.03
2022-09-10T12:47:46.673Z,100847.47
2022-09-10T12:50:19.784Z,100842.75
2022-09-10T12:52:54.262Z,100842.53
2022-09-10T12:55:21.477Z,100845.81
2022-09-10T12:57:52.626Z,100848.72
2022-09-10T13:00:20.411Z,100843.75
2022-09-10T13:02:49.248Z,100846.66
2022-09-10T13:05:22.929Z,100844.97
2022-09-10T13:07:56.260Z,100852.84
2022-09-10T13:10:24.610Z,100858.22
2022-09-10T13:12:53.826Z,100862.31
2022-09-10T13:15:21.327Z,100856.28
2022-09-10T13:18:06.044Z,100846.09
2022-09-10T13:20:34.026Z,100858.50
2022-09-10T13:23:01.564Z,100850.59
2022-09-10T13:25:37.983Z,100857.69
2022-09-10T13:28:37.451Z,100843.63
2022-09-10T13:31:08.596Z,100854.84
2022-09-10T13:33:53.778Z,100865.66
2022-09-10T13:36:30.168Z,100870.69
2022-09-10T13:39:23.714Z,100871.50
2022-09-10T13:42:00.771Z,100863.25
2022-09-10T13:44:39.891Z,100869.03
2022-09-10T13:47:09.842Z,100877.72
2022-09-10T13:49:39.780Z,100884.31
2022-09-10T13:52:10.951Z,100885.97
2022-09-10T13:54:39.611Z,100878.31
2022-09-10T13:57:11.841Z,100888.81
2022-09-10T13:59:40.366Z,100883.03
2022-09-10T14:02:06.680Z,100892.09
2022-09-10T14:04:34.167Z,100902.41
2022-09-10T14:07:02.805Z,100901.19
2022-09-10T14:09:31.007Z,100902.47
2022-09-10T14:11:58.011Z,100903.91
2022-09-10T14:14:26.068Z,100903.28
2022-09-10T14:16:53.788Z,100906.63
2022-09-10T14:19:23.001Z,100906.84
2022-09-10T14:21:50.011Z,100908.06
2022-09-10T14:24:27.095Z,100907.44
2022-09-10T14:27:05.954Z,100908.28
2022-09-10T14:29:32.294Z,100901.63
2022-09-10T14:32:13.469Z,100909.06
2022-09-10T14:34:39.758Z,100915.91
2022-09-10T14:37:20.913Z,100922.94
2022-09-10T14:39:47.451Z,100922.78
2022-09-10T14:42:23.896Z,100932.50
2022-09-10T14:44:50.415Z,100931.88
2022-09-10T14:47:23.338Z,100924.84
2022-09-10T14:49:49.695Z,100930.56
2022-09-10T14:52:15.974Z,100939.50
2022-09-10T14:54:42.292Z,100929.97
2022-09-10T14:57:12.256Z,100927.28
2022-09-10T14:59:40.722Z,100929.16
2022-09-10T15:02:23.158Z,100932.91
2022-09-10T15:04:49.575Z,100940.53
2022-09-10T15:07:15.910Z,100940.13
2022-09-10T15:09:42.190Z,100945.53
2022-09-10T15:12:09.402Z,100950.06
2022-09-10T15:14:36.382Z,100953.00
2022-09-10T15:17:04.646Z,100964.56
2022-09-10T15:19:30.970Z,100963.75
2022-09-10T15:21:57.728Z,100968.34
2022-09-10T15:24:24.295Z,100975.53
2022-09-10T15:26:50.698Z,100974.91
2022-09-10T15:29:17.050Z,100975.28
2022-09-10T15:31:43.507Z,100979.84
2022-09-10T15:34:11.372Z,100973.63
2022-09-10T15:36:38.981Z,100975.72
2022-09-10T15:39:05.501Z,100981.09
2022-09-10T15:41:31.771Z,100981.75
2022-09-10T15:43:58.411Z,100982.81
2022-09-10T15:46:24.865Z,100985.25
2022-09-10T15:48:51.762Z,100984.66
2022-09-10T15:51:20.584Z,100991.22
2022-09-10T15:53:47.458Z,100986.25
2022-09-10T15:56:14.231Z,100985.59
2022-09-10T15:58:40.725Z,100992.13
2022-09-10T16:01:08.526Z,100991.94
2022-09-10T16:03:34.802Z,100994.47
2022-09-10T16:06:02.292Z,100994.06
2022-09-10T16:08:30.353Z,100999.41
2022-09-10T16:10:56.832Z,100994.69
2022-09-10T16:13:23.487Z,101000.13
2022-09-10T16:15:59.804Z,100996.63
2022-09-10T16:18:26.372Z,101003.84
2022-09-10T16:20:52.643Z,101004.69
2022-09-10T16:23:18.931Z,101004.09
2022-09-10T16:25:51.374Z,101006.78
2022-09-10T16:28:17.654Z,101012.16
2022-09-10T16:30:43.938Z,101010.28
2022-09-10T16:33:10.190Z,101012.91
2022-09-10T16:35:36.485Z,101016.78
2022-09-10T16:38:02.815Z,101016.13
2022-09-10T16:40:29.084Z,101021.47
2022-09-10T16:42:56.724Z,101033.00
2022-09-10T16:45:23.019Z,101033.16
2022-09-10T16:47:49.287Z,101032.88
2022-09-10T16:50:15.650Z,101032.66
2022-09-10T16:52:41.943Z,101033.22
2022-09-10T16:55:08.330Z,101036.09
2022-09-10T16:57:34.587Z,101038.75
2022-09-10T17:00:02.548Z,101039.97
2022-09-10T17:02:28.885Z,101039.53
2022-09-10T17:04:55.181Z,101049.44
2022-09-10T17:07:21.448Z,101046.97
2022-09-10T17:09:47.748Z,101056.88
2022-09-10T17:12:14.034Z,101054.19
2022-09-10T17:14:40.299Z,101055.03
2022-09-10T17:17:07.935Z,101056.03
2022-09-10T17:19:34.228Z,101055.84
2022-09-10T17:22:00.548Z,101057.91
2022-09-10T17:24:27.158Z,101063.28
2022-09-10T17:26:53.535Z,101068.81
2022-09-10T17:29:20.557Z,101060.13
2022-09-10T17:31:47.183Z,101071.88
2022-09-10T17:34:15.673Z,101071.44
2022-09-10T17:36:43.193Z,101078.25
2022-09-10T17:39:09.698Z,101075.94
2022-09-10T17:41:36.271Z,101078.16
2022-09-10T17:44:03.095Z,101075.06
2022-09-10T17:46:29.466Z,101092.75
2022-09-10T17:48:57.247Z,101097.69
2022-09-10T17:51:26.020Z,101100.75
2022-09-10T17:53:53.559Z,101100.94
2022-09-10T17:56:20.071Z,101094.53
2022-09-10T17:58:46.623Z,101100.09
2022-09-10T18:01:22.527Z,101108.34
2022-09-10T18:03:49.641Z,101116.38
2022-09-10T18:06:15.950Z,101121.94
2022-09-10T18:08:43.830Z,101125.63
2022-09-10T18:11:11.134Z,101125.63
2022-09-10T18:13:37.744Z,101133.31
2022-09-10T18:16:04.760Z,101134.97
2022-09-10T18:18:31.067Z,101138.50
2022-09-10T18:20:57.330Z,101138.50
2022-09-10T18:23:23.592Z,101137.66
2022-09-10T18:25:51.217Z,101136.00
2022-09-10T18:28:17.493Z,101140.72
2022-09-10T18:30:43.775Z,101152.47
2022-09-10T18:33:10.039Z,101157.41
2022-09-10T18:35:36.351Z,101163.97
2022-09-10T18:38:02.623Z,101172.03
2022-09-10T18:40:28.898Z,101175.53
2022-09-10T18:42:56.522Z,101170.38
2022-09-10T18:45:22.783Z,101167.50
2022-09-10T18:47:49.063Z,101183.78
2022-09-10T18:50:15.477Z,101178.59
2022-09-10T18:52:41.750Z,101184.97
2022-09-10T18:55:08.471Z,101191.19
2022-09-10T18:57:34.743Z,101187.84
2022-09-10T19:00:02.627Z,101195.91
2022-09-10T19:02:29.036Z,101195.28
2022-09-10T19:05:10.737Z,101198.97
2022-09-10T19:07:38.248Z,101203.69
2022-09-10T19:10:05.024Z,101209.41
2022-09-10T19:12:31.278Z,101214.13
2022-09-10T19:14:57.551Z,101209.16
2022-09-10T19:17:25.180Z,101217.22
2022-09-10T19:19:51.449Z,101227.72
2022-09-10T19:22:17.891Z,101225.63
2022-09-10T19:24:54.545Z,101223.97
2022-09-10T19:27:21.893Z,101229.31
2022-09-10T19:29:48.151Z,101231.72
2022-09-10T19:32:14.421Z,101235.41
2022-09-10T19:34:42.038Z,101237.66
2022-09-10T19:37:08.317Z,101243.03
2022-09-10T19:39:34.643Z,101245.06
2022-09-10T19:42:00.939Z,101251.63
2022-09-10T19:44:27.186Z,101251.63
2022-09-10T19:46:53.447Z,101252.53
2022-09-10T19:49:19.711Z,101260.56
2022-09-10T19:51:47.314Z,101265.28
2022-09-10T19:54:13.579Z,101262.91
2022-09-10T19:56:40.879Z,101258.47
2022-09-10T19:59:07.151Z,101269.00
2022-09-10T20:01:33.477Z,101268.53
2022-09-10T20:04:00.410Z,101270.06
2022-09-10T20:06:27.547Z,101268.78
2022-09-10T20:08:55.163Z,101266.09
2022-09-10T20:11:22.191Z,101271.94
2022-09-10T20:13:48.511Z,101271.44
2022-09-10T20:16:15.412Z,101274.31
2022-09-10T20:18:42.046Z,101278.47
2022-09-10T20:21:09.505Z,101286.44
2022-09-10T20:23:35.783Z,101283.63
2022-09-10T20:26:08.347Z,101290.94
2022-09-10T20:28:34.600Z,101294.97
2022-09-10T20:31:03.175Z,101299.81
2022-09-10T20:33:29.468Z,101306.66
2022-09-10T20:35:55.734Z,101306.06
2022-09-10T20:38:22.010Z,101311.44
2022-09-10T20:40:48.279Z,101316.50
2022-09-10T20:43:15.886Z,101316.31
2022-09-10T20:45:42.434Z,101315.84
2022-09-10T20:48:08.692Z,101317.75
2022-09-10T20:50:34.950Z,101320.16
2022-09-10T20:53:01.221Z,101321.69
2022-09-10T20:55:27.475Z,101324.88
2022-09-10T20:57:53.738Z,101327.28
2022-09-10T21:00:21.460Z,101325.97
2022-09-10T21:02:47.756Z,101325.97
2022-09-10T21:05:14.041Z,101328.34
2022-09-10T21:07:40.323Z,101326.03
2022-09-10T21:10:07.175Z,101326.53
2022-09-10T21:12:33.457Z,101330.72
2022-09-10T21:14:59.802Z,101324.69
2022-09-10T21:17:27.409Z,101330.25
2022-09-10T21:19:53.688Z,101324.53
2022-09-10T21:22:19.965Z,101331.75
2022-09-10T21:24:46.222Z,101328.41
2022-09-10T21:27:12.486Z,101327.94
2022-09-10T21:29:38.809Z,101321.75
2022-09-10T21:32:06.842Z,101332.91
2022-09-10T21:34:34.456Z,101334.47
2022-09-10T21:37:00.724Z,101339.28
2022-09-10T21:39:27.066Z,101332.09
2022-09-10T21:41:53.353Z,101341.50
2022-09-10T21:44:20.604Z,101335.47
2022-09-10T21:46:47.045Z,101338.66
2022-09-10T21:49:13.441Z,101338.00
2022-09-10T21:51:41.138Z,101342.72
2022-09-10T21:54:11.145Z,101348.19
2022-09-10T21:56:37.399Z,101348.03
2022-09-10T21:59:03.686Z,101348.88
2022-09-10T22:01:31.017Z,101356.41
2022-09-10T22:03:58.040Z,101344.41
2022-09-10T22:06:25.343Z,101349.94
2022-09-10T22:08:53.444Z,101363.19
2022-09-10T22:11:20.503Z,101358.84
2022-09-10T22:13:50.363Z,101364.38
2022-09-10T22:16:16.673Z,101371.09
2022-09-10T22:18:43.102Z,101367.06
2022-09-10T22:21:09.566Z,101372.09
2022-09-10T22:23:36.648Z,101384.00
2022-09-10T22:26:05.339Z,101381.66
2022-09-10T22:28:34.665Z,101382.00
2022-09-10T22:31:05.222Z,101378.84
2022-09-10T22:33:31.590Z,101386.88
2022-09-10T22:36:07.475Z,101379.84
2022-09-10T22:38:33.761Z,101374.66
2022-09-10T22:41:01.224Z,101374.16
2022-09-10T22:43:29.303Z,101370.81
2022-09-10T22:45:55.575Z,101375.34
2022-09-10T22:48:21.838Z,101377.34
2022-09-10T22:50:48.127Z,101373.84
2022-09-10T22:53:14.408Z,101370.50
2022-09-10T22:55:40.718Z,101377.88
2022-09-10T22:58:06.991Z,101378.03
2022-09-10T23:00:35.051Z,101376.19
2022-09-10T23:03:01.628Z,101385.22
2022-09-10T23:05:27.882Z,101384.38
2022-09-10T23:07:54.155Z,101389.91
2022-09-10T23:10:20.423Z,101393.41
2022-09-10T23:12:46.699Z,101389.91
2022-09-10T23:15:12.960Z,101392.09
2022-09-10T23:17:40.591Z,101398.59
2022-09-10T23:20:07.376Z,101405.78
2022-09-10T23:22:34.024Z,101411.63
2022-09-10T23:25:00.289Z,101418.97
2022-09-10T23:27:26.575Z,101414.81
2022-09-10T23:29:52.863Z,101414.31
2022-09-10T23:32:19.124Z,101412.13
2022-09-10T23:34:46.747Z,101413.31
2022-09-10T23:37:12.993Z,101410.66
2022-09-10T23:39:39.302Z,101403.78
2022-09-10T23:42:05.658Z,101412.66
2022-09-10T23:44:32.035Z,101413.81
2022-09-10T23:46:58.290Z,101410.44
2022-09-10T23:49:24.663Z,101421.28
2022-09-10T23:51:52.579Z,101417.63
2022-09-10T23:54:18.854Z,101421.28
2022-09-10T23:56:45.118Z,101424.31
2022-09-10T23:59:11.556Z,101427.31
